Aérodrome :
LOGIN :

S'inscrire | Disclaimer

   EN    FR    IT 

 










Légende :    VFR   VFR Marginal   IFR   IFR Intensif   IFR Très Intensif
Visi : 
Plafond : 
>= 8 km
>= 3000ft
5 à 8 km
1000 à 3000 ft
1500m à 5 km
500 à 1000 ft
800 à 1500m
200 à 500 ft
< 800m
< 200 ft
Symboles :   Orages  Brouillard  Fortes neiges  Fortes précipitations  Vent > 20 kt
SIGMETs :   Divers  Orages  Givrage  Turbulence  Onde Orograph.  Cendres Volcan.






- Altitude de l'aérodrome : 538 ft
- Code IATA : TNF


LFPN - Toussus Le Noble

DERNIER METAR :
  • 130930Z AUTO 28014KT 9999 -RA SCT027/// BKN042/// BKN052/// ///CB 06/03 Q0984 TEMPO 26020G43KT 2500 SHRA BKN014 SCT020CB

METARs EXPIRÉS :
  • 130900Z AUTO 28019KT 9999 -RA BKN028/// BKN037/// OVC046/// ///CB 06/03 Q0984 TEMPO 26020G43KT 2500 SHRA BKN014 SCT020CB
  • 130830Z AUTO 26011KT 9999 -RADZ BKN031/// OVC045/// ///TCU 05/03 Q0983 TEMPO 25020G40KT 3000 SHRA SCT020CB
  • 130800Z AUTO 28016KT 9999 FEW020/// SCT033/// BKN049/// ///CB 05/03 Q0982 TEMPO 25020G40KT 3000 SHRA
  • 130730Z AUTO 30024G36KT 260V320 4700 RA BR BKN020/// BKN025/// OVC032/// ///CB 05/03 Q0982 NOSIG

TAF TAF LFPN
Valide du 13 à 09h jusqu'au 13 à 18h UTC


130800Z 1309/1318 27015KT 9999 BKN040
TEMPO 1309/1315 26018G35KT 4000 -SHRA BKN020 SCT030TCU
PROB40
TEMPO 1309/1313 26020G43KT 2500 SHRA BKN014 SCT020CB
ATIS : +33 1 39 56 54 70



MET'MAP, la Météo Aéronautique d'un coup d'oeil ! - Copyright ORBIFLY Décembre 2007 - Disclaimer

ORBIFLY MET'MAP TEAM :

Programmation & Développement : Alexandra Zaïnal
Sur une idée originale de : Baudouin d'Aumeries
Assistance à la programmation : Marc-Olivier Méhu
Soutien technique & logistique : Manuel Goepfert

Contact : metmap@orbifly.com




SOURCES & CREDITS :

   NOAA